Главная страница
METAR-TAF:

METAR-TAF

Аэропорты :

Яссы, Румыния

широта: 47-10N, долгота: 027-38E, высота над уровнем моря: 102 м

Текущие метеонаблюдения

Эта сводка был подготовлена 18 минут назад, в 07:00 UTC
Ветер 14 Узел от восточно-юго-восточный
Температура 17°C
Влажность 42%
Давление 1011 hPa
Видимость 10 км и более
Нет облачности ниже 1500 м, и нет кучево-дождевой облачности

METAR: LRIA 290700Z 11014KT CAVOK 17/04 Q1011

Время: 10:18 (07:18 UTC)

Прогноз

Эта сводка был подготовлена 2 часа и 18 минут назад, в 05:00 UTC
Прогноз действительный с 29-го 06 UTC до 29-го 15 UTC
Ветер 10 Узел от восточно-юго-восточный
Видимость 10 км и более
Нет облачности ниже 1500 м, и нет кучево-дождевой облачности
временами
С 29-го 12 UTC до 29-го 15 UTC
Отдельные облака на высоте 4000 фута, Кучево-дождевые.

TAF: LRIA 290500Z 2906/2915 12010KT CAVOK TEMPO 2912/2915 SCT040CB

Метеонаблюдения и прогнозы для более 4000 аэропортов (сводки METAR и TAF).

Имеющиеся станции представлены на карте желтыми и красными точками.

Чтобы увидеть название станции, наведите на нее мышь.

Затем щелкните, чтобы увидеть метеонаблюдения и метеопрогнозы.

Управление картой: чтобы увеличить масштаб, щелкните зеленые кнопки с черным крестиком; чтобы уменьшить масштаб, щелкните зеленую кнопку с тире; для просмотра соседних карт щелкайте зеленые стрелки.


METAR-TAF: